Time;durP1;ratioP1;P1;durP2;ratioP2;P2;SDS_P1;SDS_P2;PMS_P1;PMS_P2;Temp;Humidity;BMP_temperature;BMP_pressure;BME280_temperature;BME280_humidity;BME280_pressure;Samples;Min_cycle;Max_cycle;Signal;HPM_P1;HPM_P2
2021/12/06 00:01:48;;;;;;;31.55;15.10;;;;;;;;;;4957884;28;20043;-68
2021/12/06 00:04:17;;;;;;;28.85;13.90;;;;;;;;;;4948086;28;20047;-68
2021/12/06 00:06:44;;;;;;;29.45;15.07;;;;;;;;;;4950755;28;20047;-68
2021/12/06 00:09:12;;;;;;;27.87;14.23;;;;;;;;;;4965527;28;20177;-68
2021/12/06 00:11:39;;;;;;;27.75;14.02;;;;;;;;;;4965215;28;20078;-68
2021/12/06 00:14:05;;;;;;;30.70;15.55;;;;;;;;;;4959038;28;20054;-68
2021/12/06 00:16:32;;;;;;;29.70;14.07;;;;;;;;;;4958788;28;20506;-67
2021/12/06 00:18:58;;;;;;;30.77;14.30;;;;;;;;;;4947724;28;20043;-67
2021/12/06 00:21:25;;;;;;;29.85;14.90;;;;;;;;;;4947867;28;20043;-68
2021/12/06 00:23:51;;;;;;;31.98;15.20;;;;;;;;;;4947495;28;20051;-68
2021/12/06 00:26:17;;;;;;;32.80;14.25;;;;;;;;;;4947144;28;20043;-67
2021/12/06 00:28:45;;;;;;;31.20;14.15;;;;;;;;;;4947803;28;20070;-67
2021/12/06 00:31:12;;;;;;;30.05;15.25;;;;;;;;;;4960363;28;20551;-67
2021/12/06 00:33:38;;;;;;;30.05;14.18;;;;;;;;;;4948424;28;20400;-67
2021/12/06 00:36:07;;;;;;;28.98;14.55;;;;;;;;;;4965655;28;20419;-67
2021/12/06 00:38:35;;;;;;;32.45;14.73;;;;;;;;;;4965517;28;20043;-67
2021/12/06 00:41:02;;;;;;;32.17;15.13;;;;;;;;;;4959342;28;20105;-67
2021/12/06 00:43:28;;;;;;;31.17;15.13;;;;;;;;;;4959467;28;20101;-67
2021/12/06 00:45:54;;;;;;;30.13;15.43;;;;;;;;;;4965722;28;20046;-68
2021/12/06 00:48:21;;;;;;;30.98;14.98;;;;;;;;;;4968213;28;20098;-68
2021/12/06 00:50:47;;;;;;;28.77;14.18;;;;;;;;;;4956562;28;20047;-69
2021/12/06 00:53:13;;;;;;;34.53;15.20;;;;;;;;;;4951396;28;20044;-68
2021/12/06 00:55:39;;;;;;;33.97;15.30;;;;;;;;;;4933547;29;20071;-67
2021/12/06 00:58:06;;;;;;;32.60;15.63;;;;;;;;;;4947220;28;20489;-68
2021/12/06 01:00:39;;;;;;;33.72;14.82;;;;;;;;;;4951794;28;20042;-67
2021/12/06 01:03:07;;;;;;;36.63;16.50;;;;;;;;;;4969229;28;20042;-67
2021/12/06 01:05:33;;;;;;;31.88;15.02;;;;;;;;;;4952820;28;20039;-68
2021/12/06 01:07:59;;;;;;;31.10;15.05;;;;;;;;;;4964990;28;20038;-68
2021/12/06 01:10:26;;;;;;;35.97;17.00;;;;;;;;;;4959615;28;20055;-68
2021/12/06 01:12:53;;;;;;;36.15;16.23;;;;;;;;;;4937730;28;20054;-69
2021/12/06 01:15:19;;;;;;;31.05;14.95;;;;;;;;;;4969408;28;20134;-68
2021/12/06 01:17:46;;;;;;;38.00;16.77;;;;;;;;;;4968481;28;20154;-68
2021/12/06 01:20:18;;;;;;;33.10;15.35;;;;;;;;;;4959997;28;20074;-69
2021/12/06 01:22:50;;;;;;;29.58;15.00;;;;;;;;;;4941131;28;20122;-68
2021/12/06 01:25:34;;;;;;;34.65;15.32;;;;;;;;;;4951036;28;20054;-68
2021/12/06 01:28:30;;;;;;;37.75;16.40;;;;;;;;;;4950453;28;20107;-68
2021/12/06 01:30:56;;;;;;;36.42;16.50;;;;;;;;;;4968635;28;20102;-68
2021/12/06 01:33:43;;;;;;;37.20;16.92;;;;;;;;;;4967879;28;20414;-68
2021/12/06 01:39:14;;;;;;;42.45;18.33;;;;;;;;;;4968189;28;20125;-67
2021/12/06 01:41:43;;;;;;;34.28;16.45;;;;;;;;;;4967982;28;20714;-68
2021/12/06 01:44:12;;;;;;;38.22;16.63;;;;;;;;;;4948168;28;20209;-68
2021/12/06 01:46:45;;;;;;;33.90;16.90;;;;;;;;;;4968305;28;20046;-68
2021/12/06 01:49:11;;;;;;;38.85;17.15;;;;;;;;;;4950682;28;20493;-68
2021/12/06 01:51:38;;;;;;;40.92;17.42;;;;;;;;;;4950931;28;20039;-68
2021/12/06 01:54:05;;;;;;;34.83;15.85;;;;;;;;;;4950972;28;20047;-68
2021/12/06 01:56:31;;;;;;;38.88;16.83;;;;;;;;;;4964981;28;20047;-67
2021/12/06 01:58:58;;;;;;;37.88;16.80;;;;;;;;;;4949742;28;20084;-68
2021/12/06 02:01:24;;;;;;;37.55;17.45;;;;;;;;;;4957882;28;20042;-68
2021/12/06 02:03:50;;;;;;;35.30;17.13;;;;;;;;;;4969054;28;20047;-68
2021/12/06 02:06:17;;;;;;;39.45;16.88;;;;;;;;;;4950606;28;20126;-68
2021/12/06 02:08:43;;;;;;;39.97;16.50;;;;;;;;;;4968220;28;20046;-68
2021/12/06 02:11:10;;;;;;;35.65;16.73;;;;;;;;;;4966889;28;20046;-68
2021/12/06 02:13:49;;;;;;;37.15;17.20;;;;;;;;;;4968265;28;20065;-68
2021/12/06 02:16:19;;;;;;;35.67;16.38;;;;;;;;;;4968436;28;20109;-68
2021/12/06 02:18:50;;;;;;;36.85;16.00;;;;;;;;;;4949835;28;20090;-68
2021/12/06 02:21:19;;;;;;;34.65;15.77;;;;;;;;;;4950208;28;20047;-68
2021/12/06 02:23:46;;;;;;;39.78;17.10;;;;;;;;;;4950007;28;20050;-68
2021/12/06 02:26:13;;;;;;;38.92;16.27;;;;;;;;;;4948780;28;20481;-67
2021/12/06 02:28:39;;;;;;;37.20;16.55;;;;;;;;;;4949550;28;20067;-68
2021/12/06 02:31:05;;;;;;;33.33;16.60;;;;;;;;;;4948898;28;20051;-68
2021/12/06 02:33:31;;;;;;;39.05;16.45;;;;;;;;;;4955064;28;20117;-68
2021/12/06 02:35:58;;;;;;;35.22;15.88;;;;;;;;;;4967391;28;20126;-67
2021/12/06 02:38:24;;;;;;;37.60;16.33;;;;;;;;;;4967923;28;20465;-67
2021/12/06 02:40:50;;;;;;;35.85;16.70;;;;;;;;;;4966569;28;20125;-67
2021/12/06 02:43:17;;;;;;;36.10;16.17;;;;;;;;;;4967868;28;20038;-68
2021/12/06 02:45:44;;;;;;;36.30;16.23;;;;;;;;;;4967775;28;20042;-68
2021/12/06 02:48:11;;;;;;;35.38;16.08;;;;;;;;;;4953196;28;20090;-68
2021/12/06 02:50:40;;;;;;;35.63;15.85;;;;;;;;;;4965869;28;20042;-68
2021/12/06 02:53:06;;;;;;;40.65;17.52;;;;;;;;;;4966498;28;20031;-68
2021/12/06 02:55:36;;;;;;;33.08;15.32;;;;;;;;;;4962537;28;20039;-68
2021/12/06 02:58:14;;;;;;;36.47;17.05;;;;;;;;;;4948843;28;20047;-68
2021/12/06 03:00:42;;;;;;;38.95;17.10;;;;;;;;;;4949348;28;20042;-67
2021/12/06 03:03:08;;;;;;;40.70;16.38;;;;;;;;;;4967351;28;20186;-68
2021/12/06 03:05:34;;;;;;;36.50;16.40;;;;;;;;;;4957502;28;20046;-67
2021/12/06 03:08:02;;;;;;;39.30;17.25;;;;;;;;;;4948585;28;20405;-68
2021/12/06 03:10:29;;;;;;;39.77;18.43;;;;;;;;;;4947514;28;20070;-67
2021/12/06 03:12:55;;;;;;;37.85;17.30;;;;;;;;;;4965874;28;20042;-69
2021/12/06 03:15:23;;;;;;;39.38;16.88;;;;;;;;;;4949105;28;20133;-69
2021/12/06 03:17:49;;;;;;;38.57;17.53;;;;;;;;;;4967296;28;20413;-69
2021/12/06 03:20:16;;;;;;;41.35;18.00;;;;;;;;;;4949670;28;20043;-69
2021/12/06 03:22:43;;;;;;;42.00;18.65;;;;;;;;;;4932181;28;20130;-68
2021/12/06 03:25:11;;;;;;;42.03;17.90;;;;;;;;;;4947231;28;20133;-68
2021/12/06 03:27:37;;;;;;;44.95;18.65;;;;;;;;;;4948281;28;20050;-68
2021/12/06 03:30:05;;;;;;;41.92;17.55;;;;;;;;;;4931045;29;20047;-68
2021/12/06 03:32:31;;;;;;;41.42;17.77;;;;;;;;;;4948278;28;20397;-68
2021/12/06 03:34:57;;;;;;;46.15;19.13;;;;;;;;;;4948192;28;20047;-68
2021/12/06 03:37:23;;;;;;;44.67;19.45;;;;;;;;;;4939101;28;20048;-68
2021/12/06 03:39:50;;;;;;;44.67;19.05;;;;;;;;;;4952642;28;20043;-68
2021/12/06 03:42:17;;;;;;;51.05;19.30;;;;;;;;;;4947632;28;20050;-68
2021/12/06 03:44:43;;;;;;;47.58;18.90;;;;;;;;;;4960326;28;20039;-68
2021/12/06 03:47:12;;;;;;;44.88;18.77;;;;;;;;;;4966525;28;20066;-68
2021/12/06 03:49:38;;;;;;;45.33;18.52;;;;;;;;;;4949153;28;20117;-68
2021/12/06 03:52:05;;;;;;;44.17;18.88;;;;;;;;;;4965564;28;20065;-68
2021/12/06 03:54:32;;;;;;;47.65;21.05;;;;;;;;;;4950167;28;20568;-68
2021/12/06 03:56:59;;;;;;;41.08;17.45;;;;;;;;;;4947241;28;20050;-67
2021/12/06 03:59:25;;;;;;;48.60;18.88;;;;;;;;;;4931085;28;20059;-68
2021/12/06 04:01:52;;;;;;;43.30;18.63;;;;;;;;;;4947289;28;20047;-68
2021/12/06 04:04:18;;;;;;;48.58;19.50;;;;;;;;;;4931073;28;20062;-68
2021/12/06 04:06:45;;;;;;;48.00;19.58;;;;;;;;;;4947904;28;20734;-68
2021/12/06 04:09:12;;;;;;;46.67;19.25;;;;;;;;;;4936425;28;20184;-68
2021/12/06 04:11:39;;;;;;;49.63;20.02;;;;;;;;;;4963860;28;20556;-68
2021/12/06 04:14:06;;;;;;;50.97;20.23;;;;;;;;;;4947365;28;20050;-68
2021/12/06 04:16:32;;;;;;;45.33;19.23;;;;;;;;;;4948087;28;20549;-67
2021/12/06 04:18:59;;;;;;;43.15;18.00;;;;;;;;;;4947187;28;20494;-68
2021/12/06 04:21:26;;;;;;;52.00;19.85;;;;;;;;;;4948213;28;20039;-67
2021/12/06 04:23:52;;;;;;;53.35;20.52;;;;;;;;;;4947961;28;20059;-68
2021/12/06 04:26:19;;;;;;;51.47;17.83;;;;;;;;;;4944810;28;20065;-68
2021/12/06 04:28:48;;;;;;;48.60;20.50;;;;;;;;;;4965371;28;20138;-67
2021/12/06 04:31:15;;;;;;;52.33;20.13;;;;;;;;;;4965472;28;20043;-68
2021/12/06 04:33:42;;;;;;;50.90;20.13;;;;;;;;;;4965705;28;20043;-67
2021/12/06 04:36:08;;;;;;;52.78;20.02;;;;;;;;;;4965584;28;20433;-67
2021/12/06 04:38:35;;;;;;;54.25;19.13;;;;;;;;;;4963668;28;20045;-67
2021/12/06 04:41:01;;;;;;;50.50;21.65;;;;;;;;;;4933621;28;20078;-67
2021/12/06 04:43:28;;;;;;;52.38;20.98;;;;;;;;;;4965974;28;20511;-68
2021/12/06 04:45:54;;;;;;;53.40;20.65;;;;;;;;;;4930105;28;20063;-68
2021/12/06 04:48:20;;;;;;;50.00;19.40;;;;;;;;;;4947615;28;20051;-68
2021/12/06 04:50:46;;;;;;;50.38;18.98;;;;;;;;;;4930804;28;20047;-68
2021/12/06 04:53:15;;;;;;;50.65;18.45;;;;;;;;;;4930032;29;20046;-68
2021/12/06 04:55:48;;;;;;;54.42;20.13;;;;;;;;;;4946474;28;20533;-68
2021/12/06 04:58:16;;;;;;;48.03;18.83;;;;;;;;;;4961090;28;20047;-68
2021/12/06 05:00:48;;;;;;;46.05;19.30;;;;;;;;;;4965408;28;20097;-68
2021/12/06 05:03:15;;;;;;;45.97;18.58;;;;;;;;;;4964624;28;20133;-67
2021/12/06 05:05:44;;;;;;;44.25;17.63;;;;;;;;;;4965562;28;20039;-68
2021/12/06 05:08:14;;;;;;;45.47;16.67;;;;;;;;;;4961830;28;20069;-68
2021/12/06 05:10:40;;;;;;;47.00;18.52;;;;;;;;;;4964618;28;20508;-68
2021/12/06 05:13:07;;;;;;;47.60;18.50;;;;;;;;;;4959098;28;20047;-68
2021/12/06 05:15:33;;;;;;;51.13;19.17;;;;;;;;;;4947332;28;20409;-68
2021/12/06 05:18:00;;;;;;;49.47;19.20;;;;;;;;;;4965177;28;20046;-67
2021/12/06 05:20:26;;;;;;;53.30;19.83;;;;;;;;;;4965171;28;20034;-67
2021/12/06 05:22:53;;;;;;;47.83;18.63;;;;;;;;;;4965095;28;20067;-68
2021/12/06 05:25:23;;;;;;;49.60;18.58;;;;;;;;;;4965063;28;20503;-67
2021/12/06 05:27:49;;;;;;;49.03;19.23;;;;;;;;;;4948369;28;20043;-68
2021/12/06 05:30:16;;;;;;;49.58;19.73;;;;;;;;;;4964641;28;20047;-68
2021/12/06 05:32:43;;;;;;;54.80;21.63;;;;;;;;;;4965364;28;20401;-69
2021/12/06 05:35:10;;;;;;;48.05;19.77;;;;;;;;;;4967986;28;20397;-68
2021/12/06 05:37:44;;;;;;;56.63;20.42;;;;;;;;;;4968823;28;20038;-68
2021/12/06 05:40:13;;;;;;;45.45;19.85;;;;;;;;;;4953171;28;20493;-67
2021/12/06 05:42:39;;;;;;;56.88;20.38;;;;;;;;;;4950531;28;21668;-68
2021/12/06 05:45:07;;;;;;;48.08;19.52;;;;;;;;;;4951733;28;20051;-68
2021/12/06 05:47:33;;;;;;;53.95;18.45;;;;;;;;;;4950649;28;20051;-68
2021/12/06 05:49:59;;;;;;;45.55;20.10;;;;;;;;;;4950332;28;20051;-68
2021/12/06 05:52:26;;;;;;;43.22;19.83;;;;;;;;;;4933353;28;20043;-68
2021/12/06 05:54:52;;;;;;;49.30;18.33;;;;;;;;;;4949541;28;20122;-68
2021/12/06 05:57:18;;;;;;;44.45;18.15;;;;;;;;;;4933227;29;20122;-67
2021/12/06 05:59:45;;;;;;;46.95;17.20;;;;;;;;;;4958650;28;20106;-67
2021/12/06 06:02:12;;;;;;;41.03;17.25;;;;;;;;;;4958184;28;20451;-67
2021/12/06 06:04:38;;;;;;;47.95;18.13;;;;;;;;;;4961288;28;20055;-67
2021/12/06 06:07:05;;;;;;;56.08;19.70;;;;;;;;;;4967766;28;20098;-67
2021/12/06 06:09:31;;;;;;;51.97;20.05;;;;;;;;;;4937063;28;20381;-71
2021/12/06 06:11:57;;;;;;;49.47;18.05;;;;;;;;;;4949035;28;20062;-70
2021/12/06 06:14:23;;;;;;;50.72;19.30;;;;;;;;;;4949948;28;20117;-69
2021/12/06 06:16:52;;;;;;;49.90;18.33;;;;;;;;;;4953628;28;20043;-68
2021/12/06 06:19:20;;;;;;;46.97;18.40;;;;;;;;;;4959027;28;20050;-66
2021/12/06 06:21:47;;;;;;;54.33;18.45;;;;;;;;;;4950293;28;20838;-69
2021/12/06 06:24:13;;;;;;;49.65;19.90;;;;;;;;;;4949567;28;20039;-68
2021/12/06 06:26:40;;;;;;;48.60;19.25;;;;;;;;;;4932058;28;20517;-71
2021/12/06 06:29:06;;;;;;;48.20;20.00;;;;;;;;;;4959168;28;20121;-71
2021/12/06 06:31:33;;;;;;;47.22;19.08;;;;;;;;;;4968242;28;20162;-73
2021/12/06 06:33:59;;;;;;;44.13;18.75;;;;;;;;;;4964421;28;20523;-72
2021/12/06 06:36:25;;;;;;;47.22;18.92;;;;;;;;;;4967751;28;20138;-72
2021/12/06 06:38:51;;;;;;;54.30;18.63;;;;;;;;;;4965037;28;20101;-72
2021/12/06 06:41:18;;;;;;;47.45;18.02;;;;;;;;;;4966404;28;20071;-73
2021/12/06 06:43:44;;;;;;;52.47;19.55;;;;;;;;;;4949768;28;20055;-74
2021/12/06 06:46:10;;;;;;;49.70;18.90;;;;;;;;;;4965300;28;20779;-72
2021/12/06 06:48:37;;;;;;;48.63;17.65;;;;;;;;;;4948306;28;20051;-72
2021/12/06 06:51:04;;;;;;;48.15;17.20;;;;;;;;;;4968254;28;20047;-72
2021/12/06 06:53:30;;;;;;;46.38;17.35;;;;;;;;;;4967588;28;20043;-72
2021/12/06 06:55:57;;;;;;;51.83;17.50;;;;;;;;;;4967082;28;20125;-72
2021/12/06 06:58:23;;;;;;;48.20;18.52;;;;;;;;;;4965246;28;20392;-71
2021/12/06 07:00:50;;;;;;;50.50;18.75;;;;;;;;;;4965867;28;20035;-73
2021/12/06 07:03:16;;;;;;;52.83;19.85;;;;;;;;;;4962699;28;20494;-72
2021/12/06 07:05:42;;;;;;;45.67;18.35;;;;;;;;;;4953691;28;20055;-71
2021/12/06 07:08:08;;;;;;;54.70;19.60;;;;;;;;;;4937788;28;20035;-76
2021/12/06 07:10:35;;;;;;;55.50;20.42;;;;;;;;;;4950151;28;20801;-72
2021/12/06 07:13:04;;;;;;;53.40;19.17;;;;;;;;;;4959555;28;20046;-72
2021/12/06 07:15:32;;;;;;;57.47;20.33;;;;;;;;;;4956724;28;20339;-72
2021/12/06 07:17:59;;;;;;;54.83;19.50;;;;;;;;;;4958958;28;20059;-72
2021/12/06 07:20:25;;;;;;;49.35;18.42;;;;;;;;;;4943199;28;20042;-73
2021/12/06 07:22:52;;;;;;;52.08;18.90;;;;;;;;;;4957899;28;20054;-72
2021/12/06 07:25:20;;;;;;;48.92;17.73;;;;;;;;;;4965479;28;20047;-72
2021/12/06 07:27:46;;;;;;;44.35;17.33;;;;;;;;;;4964998;28;20047;-72
2021/12/06 07:30:13;;;;;;;49.88;18.40;;;;;;;;;;4965686;28;20043;-72
2021/12/06 07:32:39;;;;;;;47.80;18.15;;;;;;;;;;4957169;28;20406;-72
2021/12/06 07:35:06;;;;;;;55.05;18.88;;;;;;;;;;4962701;28;20054;-72
2021/12/06 07:37:32;;;;;;;46.67;17.88;;;;;;;;;;4962843;28;20457;-72
2021/12/06 07:39:58;;;;;;;45.03;17.52;;;;;;;;;;4959166;28;20040;-72
2021/12/06 07:42:25;;;;;;;49.55;16.58;;;;;;;;;;4949090;28;20074;-72
2021/12/06 07:44:52;;;;;;;46.25;16.83;;;;;;;;;;4953004;28;20044;-72
2021/12/06 07:47:19;;;;;;;41.47;15.52;;;;;;;;;;4935494;28;20077;-72
2021/12/06 07:49:45;;;;;;;44.17;17.10;;;;;;;;;;4948590;28;20051;-72
2021/12/06 07:52:12;;;;;;;41.50;17.35;;;;;;;;;;4948088;28;20054;-72
2021/12/06 07:54:39;;;;;;;39.75;15.65;;;;;;;;;;4962211;28;20050;-72
2021/12/06 07:57:06;;;;;;;40.47;16.20;;;;;;;;;;4935180;28;20137;-72
2021/12/06 07:59:34;;;;;;;43.35;16.58;;;;;;;;;;4935033;28;20050;-72
2021/12/06 08:02:00;;;;;;;44.78;16.52;;;;;;;;;;4948036;28;20043;-72
2021/12/06 08:04:26;;;;;;;42.50;16.55;;;;;;;;;;4962337;28;20519;-72
2021/12/06 08:06:53;;;;;;;44.20;18.13;;;;;;;;;;4959379;28;20449;-72
2021/12/06 08:09:19;;;;;;;42.67;16.02;;;;;;;;;;4932048;28;20142;-72
2021/12/06 08:11:45;;;;;;;43.88;18.05;;;;;;;;;;4930989;28;20465;-72
2021/12/06 08:14:11;;;;;;;50.03;18.35;;;;;;;;;;4947770;28;20055;-72
2021/12/06 08:16:40;;;;;;;45.38;17.33;;;;;;;;;;4937861;28;21459;-72
2021/12/06 08:19:07;;;;;;;45.58;17.35;;;;;;;;;;4964959;28;20050;-72
2021/12/06 08:21:33;;;;;;;45.90;16.20;;;;;;;;;;4965146;28;20647;-72
2021/12/06 08:24:00;;;;;;;45.40;16.10;;;;;;;;;;4950987;28;20043;-72
2021/12/06 08:26:28;;;;;;;41.33;16.55;;;;;;;;;;4947410;28;20046;-72
2021/12/06 08:28:55;;;;;;;36.40;14.75;;;;;;;;;;4952084;28;20070;-72
2021/12/06 08:31:22;;;;;;;45.45;18.13;;;;;;;;;;4961771;28;20039;-72
2021/12/06 08:33:50;;;;;;;42.10;14.77;;;;;;;;;;4949024;28;20039;-72
2021/12/06 08:36:17;;;;;;;42.10;16.13;;;;;;;;;;4948694;28;20043;-72
2021/12/06 08:38:44;;;;;;;44.55;15.50;;;;;;;;;;4930980;28;20295;-72
2021/12/06 08:41:12;;;;;;;41.50;16.05;;;;;;;;;;4957524;28;20039;-72
2021/12/06 08:43:39;;;;;;;38.60;15.70;;;;;;;;;;4936535;28;20490;-72
2021/12/06 08:46:08;;;;;;;45.07;15.77;;;;;;;;;;4947792;28;20468;-72
2021/12/06 08:48:35;;;;;;;41.08;16.08;;;;;;;;;;4951465;28;20074;-72
2021/12/06 08:51:04;;;;;;;38.78;16.05;;;;;;;;;;4964886;28;20055;-72
2021/12/06 08:53:31;;;;;;;34.45;14.32;;;;;;;;;;4931499;28;20481;-71
2021/12/06 08:55:58;;;;;;;38.60;14.18;;;;;;;;;;4947483;28;20122;-72
2021/12/06 08:58:24;;;;;;;34.85;14.32;;;;;;;;;;4947798;28;20463;-72
2021/12/06 09:00:51;;;;;;;36.75;14.20;;;;;;;;;;4948129;28;20039;-71
2021/12/06 09:03:17;;;;;;;36.50;15.57;;;;;;;;;;4944872;28;20039;-72
2021/12/06 09:05:45;;;;;;;39.35;15.52;;;;;;;;;;4952581;28;20509;-72
2021/12/06 09:08:12;;;;;;;33.85;14.75;;;;;;;;;;4947881;28;20071;-72
2021/12/06 09:10:38;;;;;;;41.00;16.73;;;;;;;;;;4950550;28;20055;-72
2021/12/06 09:13:05;;;;;;;40.00;16.90;;;;;;;;;;4947673;28;20043;-72
2021/12/06 09:15:31;;;;;;;39.63;16.85;;;;;;;;;;4967960;28;20081;-72
2021/12/06 09:17:57;;;;;;;40.63;15.88;;;;;;;;;;4968095;28;20117;-72
2021/12/06 09:20:27;;;;;;;46.72;17.75;;;;;;;;;;4949247;28;20043;-72
2021/12/06 09:22:54;;;;;;;51.55;20.38;;;;;;;;;;4951250;28;20057;-72
2021/12/06 09:25:20;;;;;;;54.30;20.50;;;;;;;;;;4967532;28;20480;-72
2021/12/06 09:27:47;;;;;;;57.58;20.98;;;;;;;;;;4957498;28;20461;-71
2021/12/06 09:30:16;;;;;;;65.47;23.02;;;;;;;;;;4950627;28;20071;-72
2021/12/06 09:32:42;;;;;;;59.58;23.85;;;;;;;;;;4964766;28;20042;-72
2021/12/06 09:35:13;;;;;;;64.43;23.55;;;;;;;;;;4965394;28;20130;-72
2021/12/06 09:37:40;;;;;;;63.20;23.98;;;;;;;;;;4960935;28;20047;-72
2021/12/06 09:40:08;;;;;;;63.35;22.15;;;;;;;;;;4956598;28;20049;-72
2021/12/06 09:42:36;;;;;;;55.22;20.30;;;;;;;;;;4936437;28;20046;-72
2021/12/06 09:45:04;;;;;;;57.45;21.33;;;;;;;;;;4967600;28;20130;-72
2021/12/06 09:47:31;;;;;;;57.13;21.98;;;;;;;;;;4966948;28;20065;-72
2021/12/06 09:49:58;;;;;;;50.45;20.27;;;;;;;;;;4967270;28;20042;-72
2021/12/06 09:52:24;;;;;;;41.05;16.98;;;;;;;;;;4951048;28;20173;-72
2021/12/06 09:54:50;;;;;;;45.25;17.13;;;;;;;;;;4950223;28;20130;-72
2021/12/06 09:57:16;;;;;;;38.40;15.82;;;;;;;;;;4950932;28;20131;-72
2021/12/06 09:59:43;;;;;;;34.20;14.50;;;;;;;;;;4966620;28;20050;-72
2021/12/06 10:02:11;;;;;;;35.25;14.10;;;;;;;;;;4952954;28;20952;-72
2021/12/06 10:04:40;;;;;;;31.35;11.95;;;;;;;;;;4948175;28;20046;-72
2021/12/06 10:07:09;;;;;;;32.15;13.30;;;;;;;;;;4964790;28;20126;-72
2021/12/06 10:09:36;;;;;;;39.78;14.80;;;;;;;;;;4965337;28;20043;-71
2021/12/06 10:12:02;;;;;;;31.23;12.80;;;;;;;;;;4951929;28;20485;-71
2021/12/06 10:14:29;;;;;;;34.67;13.20;;;;;;;;;;4932878;28;20189;-71
2021/12/06 10:16:55;;;;;;;32.78;13.50;;;;;;;;;;4949706;28;20043;-71
2021/12/06 10:19:21;;;;;;;36.53;13.93;;;;;;;;;;4949446;28;20050;-71
2021/12/06 10:21:48;;;;;;;38.28;14.43;;;;;;;;;;4964462;28;20042;-71
2021/12/06 10:24:16;;;;;;;33.35;13.02;;;;;;;;;;4955385;28;20035;-71
2021/12/06 10:26:43;;;;;;;35.63;16.02;;;;;;;;;;4959618;28;20521;-71
2021/12/06 10:29:12;;;;;;;40.75;15.20;;;;;;;;;;4966387;28;20042;-71
2021/12/06 10:31:40;;;;;;;34.10;14.25;;;;;;;;;;4951799;28;20392;-71
2021/12/06 10:34:06;;;;;;;28.30;12.45;;;;;;;;;;4950520;28;20035;-71
2021/12/06 10:36:33;;;;;;;29.20;12.05;;;;;;;;;;4949593;28;20046;-71
2021/12/06 10:39:01;;;;;;;28.60;13.10;;;;;;;;;;4953423;28;20109;-71
2021/12/06 10:41:29;;;;;;;33.33;13.27;;;;;;;;;;4949201;28;20054;-71
2021/12/06 10:44:03;;;;;;;28.17;12.77;;;;;;;;;;4953292;28;20121;-71
2021/12/06 10:46:30;;;;;;;32.35;12.55;;;;;;;;;;4956124;28;20051;-71
2021/12/06 10:48:58;;;;;;;31.15;12.65;;;;;;;;;;4966996;28;20054;-71
2021/12/06 10:51:25;;;;;;;30.48;11.70;;;;;;;;;;4950141;28;20505;-71
2021/12/06 10:54:00;;;;;;;31.08;11.07;;;;;;;;;;4948745;28;20039;-71
2021/12/06 10:56:37;;;;;;;30.33;11.98;;;;;;;;;;4949588;28;20040;-71
2021/12/06 10:59:05;;;;;;;31.00;11.02;;;;;;;;;;4952958;28;20401;-71
2021/12/06 11:01:32;;;;;;;28.17;12.40;;;;;;;;;;4951890;28;20134;-71
2021/12/06 11:03:59;;;;;;;29.58;12.88;;;;;;;;;;4963647;28;20405;-71
2021/12/06 11:06:29;;;;;;;26.77;10.73;;;;;;;;;;4948880;28;20043;-71
2021/12/06 11:08:56;;;;;;;26.95;12.32;;;;;;;;;;4952941;28;20485;-71
2021/12/06 11:11:27;;;;;;;25.77;11.25;;;;;;;;;;4965513;28;20130;-71
2021/12/06 11:13:56;;;;;;;30.92;11.68;;;;;;;;;;4962015;28;20047;-71
2021/12/06 11:16:25;;;;;;;24.52;11.23;;;;;;;;;;4963667;28;20070;-71
2021/12/06 11:18:54;;;;;;;28.63;11.23;;;;;;;;;;4940518;28;20083;-71
2021/12/06 11:21:22;;;;;;;31.90;12.93;;;;;;;;;;4965405;28;20051;-71
2021/12/06 11:24:04;;;;;;;31.23;11.95;;;;;;;;;;4965448;28;20043;-71
2021/12/06 11:26:32;;;;;;;26.23;11.07;;;;;;;;;;4952746;28;20106;-71
2021/12/06 11:29:12;;;;;;;32.40;11.57;;;;;;;;;;4953625;28;20057;-71
2021/12/06 11:31:40;;;;;;;33.28;12.77;;;;;;;;;;4962769;28;20512;-71
2021/12/06 11:34:07;;;;;;;32.05;11.80;;;;;;;;;;4964624;28;20078;-71
2021/12/06 11:36:34;;;;;;;36.53;12.98;;;;;;;;;;4965333;28;20054;-71
2021/12/06 11:39:03;;;;;;;32.20;12.65;;;;;;;;;;4957469;28;20516;-71
2021/12/06 11:41:29;;;;;;;37.05;13.13;;;;;;;;;;4931148;28;20393;-71
2021/12/06 11:43:56;;;;;;;33.20;12.38;;;;;;;;;;4948255;28;20053;-71
2021/12/06 11:46:30;;;;;;;31.30;12.80;;;;;;;;;;4954844;28;20050;-71
2021/12/06 11:48:57;;;;;;;35.88;12.65;;;;;;;;;;4959132;28;20039;-71
2021/12/06 11:51:23;;;;;;;33.33;12.93;;;;;;;;;;4964887;28;20474;-71
2021/12/06 11:53:52;;;;;;;30.85;12.43;;;;;;;;;;4951524;28;20097;-71
2021/12/06 11:56:22;;;;;;;31.92;11.90;;;;;;;;;;4948376;28;20126;-71
2021/12/06 11:58:51;;;;;;;32.15;12.57;;;;;;;;;;4954353;28;20035;-71
2021/12/06 12:01:26;;;;;;;34.15;12.52;;;;;;;;;;4931467;28;20086;-71
2021/12/06 12:03:54;;;;;;;26.98;11.57;;;;;;;;;;4960525;28;20054;-71
2021/12/06 12:06:22;;;;;;;27.50;11.52;;;;;;;;;;4964797;28;20485;-71
2021/12/06 12:08:48;;;;;;;26.23;11.07;;;;;;;;;;4960847;28;20069;-71
2021/12/06 12:11:15;;;;;;;29.90;10.80;;;;;;;;;;4947138;28;20365;-71
2021/12/06 12:13:43;;;;;;;29.00;11.73;;;;;;;;;;4964482;28;20260;-71
2021/12/06 12:16:10;;;;;;;29.27;11.53;;;;;;;;;;4964323;28;20049;-71
2021/12/06 12:18:38;;;;;;;30.63;12.07;;;;;;;;;;4961841;28;20046;-71
2021/12/06 12:21:05;;;;;;;28.45;12.38;;;;;;;;;;4959674;28;20042;-71
2021/12/06 12:23:33;;;;;;;32.65;12.88;;;;;;;;;;4947253;28;20079;-72
2021/12/06 12:26:03;;;;;;;32.50;12.30;;;;;;;;;;4946343;28;20058;-71
2021/12/06 12:28:39;;;;;;;32.45;12.73;;;;;;;;;;4940867;28;20108;-72
2021/12/06 12:31:06;;;;;;;29.77;12.55;;;;;;;;;;4964460;28;20061;-71
2021/12/06 12:33:33;;;;;;;35.47;13.93;;;;;;;;;;4946823;28;20050;-71
2021/12/06 12:36:04;;;;;;;33.42;13.35;;;;;;;;;;4963668;28;20093;-71
2021/12/06 12:38:33;;;;;;;35.70;14.57;;;;;;;;;;4961166;28;20043;-71
2021/12/06 12:41:01;;;;;;;36.90;14.57;;;;;;;;;;4941348;28;20149;-72
2021/12/06 12:43:33;;;;;;;34.13;14.23;;;;;;;;;;4955586;28;20517;-71
2021/12/06 12:46:02;;;;;;;37.72;14.15;;;;;;;;;;4953658;28;20042;-71
2021/12/06 12:48:43;;;;;;;40.55;15.50;;;;;;;;;;4935493;28;20093;-71
2021/12/06 12:51:12;;;;;;;44.45;15.75;;;;;;;;;;4966305;28;20047;-71
2021/12/06 12:53:47;;;;;;;39.67;16.10;;;;;;;;;;4948630;28;20485;-71
2021/12/06 12:56:18;;;;;;;38.75;15.15;;;;;;;;;;4948372;28;20042;-72
2021/12/06 12:58:44;;;;;;;48.28;17.20;;;;;;;;;;4968023;28;20416;-71
2021/12/06 13:01:13;;;;;;;46.72;17.73;;;;;;;;;;4967830;28;20097;-71
2021/12/06 13:03:39;;;;;;;;;;;;;;;;;;4968640;28;20051;-72
2021/12/06 13:06:12;;;;;;;51.42;18.98;;;;;;;;;;4950592;28;19977;-71
2021/12/06 13:08:38;;;;;;;48.40;18.13;;;;;;;;;;4952832;28;20078;-71
2021/12/06 13:11:04;;;;;;;51.13;18.90;;;;;;;;;;4945724;28;20055;-71
2021/12/06 13:13:35;;;;;;;44.05;17.42;;;;;;;;;;4964035;28;20050;-71
2021/12/06 13:16:08;;;;;;;41.55;16.92;;;;;;;;;;4955738;28;20046;-71
2021/12/06 13:18:48;;;;;;;47.35;18.48;;;;;;;;;;4945308;28;20055;-71
2021/12/06 13:21:30;;;;;;;46.28;17.77;;;;;;;;;;4967275;28;20206;-71
2021/12/06 13:24:16;;;;;;;47.17;17.80;;;;;;;;;;4967005;28;21736;-71
2021/12/06 13:26:43;;;;;;;48.80;19.33;;;;;;;;;;4947405;28;20488;-71
2021/12/06 13:29:11;;;;;;;49.28;20.00;;;;;;;;;;4963272;28;20043;-71
2021/12/06 13:31:37;;;;;;;49.45;18.48;;;;;;;;;;4950283;28;20046;-71
2021/12/06 13:34:18;;;;;;;52.80;19.75;;;;;;;;;;4963542;28;20129;-71
2021/12/06 13:36:45;;;;;;;53.33;19.90;;;;;;;;;;4965981;28;20510;-72
2021/12/06 13:39:30;;;;;;;58.65;21.58;;;;;;;;;;4966383;28;20046;-72
2021/12/06 13:41:57;;;;;;;57.53;20.92;;;;;;;;;;4961429;28;20841;-72
2021/12/06 13:44:37;;;;;;;64.35;23.35;;;;;;;;;;4950825;28;20036;-72
2021/12/06 13:47:08;;;;;;;58.50;23.13;;;;;;;;;;4938100;28;20104;-72
2021/12/06 13:49:34;;;;;;;69.32;23.92;;;;;;;;;;4967101;28;20390;-72
2021/12/06 13:52:02;;;;;;;62.63;22.30;;;;;;;;;;4967201;28;20046;-72
2021/12/06 13:54:35;;;;;;;63.05;23.77;;;;;;;;;;4965717;28;20082;-72
2021/12/06 13:57:03;;;;;;;70.47;25.52;;;;;;;;;;4964393;28;20524;-72
2021/12/06 13:59:38;;;;;;;72.47;26.10;;;;;;;;;;4965658;28;20038;-72
2021/12/06 14:02:07;;;;;;;69.13;25.38;;;;;;;;;;4961615;28;20047;-71
2021/12/06 14:04:34;;;;;;;73.22;25.75;;;;;;;;;;4963172;28;20497;-71
2021/12/06 14:07:02;;;;;;;70.18;24.13;;;;;;;;;;4962851;28;20655;-72
2021/12/06 14:09:29;;;;;;;74.57;27.13;;;;;;;;;;4949462;28;20197;-72
2021/12/06 14:11:57;;;;;;;79.70;27.92;;;;;;;;;;4949706;28;20442;-72
2021/12/06 14:14:25;;;;;;;66.40;24.95;;;;;;;;;;4957436;28;20042;-72
2021/12/06 14:16:51;;;;;;;68.65;27.13;;;;;;;;;;4966592;28;20416;-72
2021/12/06 14:19:18;;;;;;;71.35;26.38;;;;;;;;;;4967611;28;20113;-72
2021/12/06 14:21:45;;;;;;;63.88;24.00;;;;;;;;;;4955510;28;20122;-72
2021/12/06 14:24:12;;;;;;;66.55;26.17;;;;;;;;;;4957642;28;20226;-71
2021/12/06 14:26:44;;;;;;;67.63;23.58;;;;;;;;;;4956774;28;20058;-71